Elkatawa, Kentucky
Current Conditions -  °F | °C
As of 5:53 PM on Thursday 18 Dec 2014 (Local Time) from KJKL Reporting Station
Overcast Overcast  
Wind Chill: 33°   Ceiling: 7000
Heat Index: 33°   Visibility: 10mi
Dew Point: 24°   Wind: 0mph
Humidity: 70%   Direction: NA
Pressure: 30.16"   Gusts: NA
Location:  37.532°N, 83.3068°W
Report Text: KJKL 182253Z AUTO 00000KT 10SM OVC070 01/M04 A3016 RMK AO2 SLP225 T00061044
Loading
Personal Weather Stations






























Interactive Weather Map New forecast layout! Learn more

10-Day Weather Forecast

Advertisements
Track Severe Weather on mobile